sensor_id;sensor_type;location;lat;lon;timestamp;P1;durP1;ratioP1;P2;durP2;ratioP2
15567;SDS011;7885;42.596;23.044;2024-02-23T00:00:15;14.13;;;12.43;;
15567;SDS011;7885;42.596;23.044;2024-02-23T00:02:43;13.60;;;12.20;;
15567;SDS011;7885;42.596;23.044;2024-02-23T00:05:10;12.40;;;11.10;;
15567;SDS011;7885;42.596;23.044;2024-02-23T00:07:36;14.50;;;12.77;;
15567;SDS011;7885;42.596;23.044;2024-02-23T00:10:04;16.40;;;10.90;;
15567;SDS011;7885;42.596;23.044;2024-02-23T00:12:31;12.97;;;11.63;;
15567;SDS011;7885;42.596;23.044;2024-02-23T00:14:59;12.97;;;11.40;;
15567;SDS011;7885;42.596;23.044;2024-02-23T00:17:26;13.17;;;11.77;;
15567;SDS011;7885;42.596;23.044;2024-02-23T00:19:53;14.07;;;11.53;;
15567;SDS011;7885;42.596;23.044;2024-02-23T00:22:20;14.83;;;11.90;;
15567;SDS011;7885;42.596;23.044;2024-02-23T00:24:47;14.43;;;12.27;;
15567;SDS011;7885;42.596;23.044;2024-02-23T00:27:13;13.73;;;12.33;;
15567;SDS011;7885;42.596;23.044;2024-02-23T00:29:40;14.37;;;12.97;;
15567;SDS011;7885;42.596;23.044;2024-02-23T00:32:09;13.87;;;12.43;;
15567;SDS011;7885;42.596;23.044;2024-02-23T00:34:36;14.77;;;13.17;;
15567;SDS011;7885;42.596;23.044;2024-02-23T00:37:03;16.13;;;12.13;;
15567;SDS011;7885;42.596;23.044;2024-02-23T00:39:30;13.70;;;12.07;;
15567;SDS011;7885;42.596;23.044;2024-02-23T00:41:57;15.57;;;12.37;;
15567;SDS011;7885;42.596;23.044;2024-02-23T00:44:24;13.90;;;12.13;;
15567;SDS011;7885;42.596;23.044;2024-02-23T00:46:51;13.40;;;12.00;;
15567;SDS011;7885;42.596;23.044;2024-02-23T00:49:19;13.00;;;11.70;;
15567;SDS011;7885;42.596;23.044;2024-02-23T00:51:46;14.10;;;12.53;;
15567;SDS011;7885;42.596;23.044;2024-02-23T00:54:12;14.67;;;13.17;;
15567;SDS011;7885;42.596;23.044;2024-02-23T00:56:39;16.67;;;13.17;;
15567;SDS011;7885;42.596;23.044;2024-02-23T00:59:06;14.00;;;12.33;;
15567;SDS011;7885;42.596;23.044;2024-02-23T01:01:33;15.33;;;13.73;;
15567;SDS011;7885;42.596;23.044;2024-02-23T01:03:59;14.53;;;13.03;;
15567;SDS011;7885;42.596;23.044;2024-02-23T01:06:28;17.73;;;14.00;;
15567;SDS011;7885;42.596;23.044;2024-02-23T01:08:54;14.37;;;12.87;;
15567;SDS011;7885;42.596;23.044;2024-02-23T01:11:21;13.90;;;12.20;;
15567;SDS011;7885;42.596;23.044;2024-02-23T01:13:48;15.13;;;13.50;;
15567;SDS011;7885;42.596;23.044;2024-02-23T01:16:15;15.20;;;13.60;;
15567;SDS011;7885;42.596;23.044;2024-02-23T01:18:42;14.17;;;12.67;;
15567;SDS011;7885;42.596;23.044;2024-02-23T01:21:09;16.47;;;14.23;;
15567;SDS011;7885;42.596;23.044;2024-02-23T01:23:37;13.40;;;12.00;;
15567;SDS011;7885;42.596;23.044;2024-02-23T01:26:04;14.10;;;12.43;;
15567;SDS011;7885;42.596;23.044;2024-02-23T01:28:31;14.77;;;13.20;;
15567;SDS011;7885;42.596;23.044;2024-02-23T01:30:58;15.27;;;13.67;;
15567;SDS011;7885;42.596;23.044;2024-02-23T01:33:25;15.70;;;14.03;;
15567;SDS011;7885;42.596;23.044;2024-02-23T01:35:51;16.50;;;13.83;;
15567;SDS011;7885;42.596;23.044;2024-02-23T01:38:18;16.40;;;13.70;;
15567;SDS011;7885;42.596;23.044;2024-02-23T01:40:47;16.20;;;14.60;;
15567;SDS011;7885;42.596;23.044;2024-02-23T01:43:14;16.57;;;14.77;;
15567;SDS011;7885;42.596;23.044;2024-02-23T01:45:41;14.27;;;12.77;;
15567;SDS011;7885;42.596;23.044;2024-02-23T01:48:08;13.93;;;12.23;;
15567;SDS011;7885;42.596;23.044;2024-02-23T01:50:35;14.87;;;13.33;;
15567;SDS011;7885;42.596;23.044;2024-02-23T01:53:03;15.63;;;13.93;;
15567;SDS011;7885;42.596;23.044;2024-02-23T01:55:30;14.20;;;12.80;;
15567;SDS011;7885;42.596;23.044;2024-02-23T01:57:59;13.47;;;11.10;;
15567;SDS011;7885;42.596;23.044;2024-02-23T02:00:26;13.43;;;12.03;;
15567;SDS011;7885;42.596;23.044;2024-02-23T02:02:53;15.27;;;13.50;;
15567;SDS011;7885;42.596;23.044;2024-02-23T02:05:20;14.67;;;13.17;;
15567;SDS011;7885;42.596;23.044;2024-02-23T02:07:49;13.50;;;12.20;;
15567;SDS011;7885;42.596;23.044;2024-02-23T02:10:18;13.93;;;12.53;;
15567;SDS011;7885;42.596;23.044;2024-02-23T02:12:46;14.70;;;12.93;;
15567;SDS011;7885;42.596;23.044;2024-02-23T02:15:14;14.87;;;13.27;;
15567;SDS011;7885;42.596;23.044;2024-02-23T02:17:41;13.53;;;11.67;;
15567;SDS011;7885;42.596;23.044;2024-02-23T02:20:10;14.30;;;11.97;;
15567;SDS011;7885;42.596;23.044;2024-02-23T02:22:38;13.63;;;12.27;;
15567;SDS011;7885;42.596;23.044;2024-02-23T02:25:06;13.60;;;11.80;;
15567;SDS011;7885;42.596;23.044;2024-02-23T02:27:33;12.70;;;11.40;;
15567;SDS011;7885;42.596;23.044;2024-02-23T02:30:00;13.27;;;11.87;;
15567;SDS011;7885;42.596;23.044;2024-02-23T02:32:28;12.83;;;11.43;;
15567;SDS011;7885;42.596;23.044;2024-02-23T02:34:55;13.97;;;11.00;;
15567;SDS011;7885;42.596;23.044;2024-02-23T02:37:21;13.57;;;12.17;;
15567;SDS011;7885;42.596;23.044;2024-02-23T02:39:48;13.07;;;11.60;;
15567;SDS011;7885;42.596;23.044;2024-02-23T02:42:15;13.27;;;11.73;;
15567;SDS011;7885;42.596;23.044;2024-02-23T02:44:42;13.20;;;11.80;;
15567;SDS011;7885;42.596;23.044;2024-02-23T02:47:09;12.37;;;11.00;;
15567;SDS011;7885;42.596;23.044;2024-02-23T02:49:39;12.87;;;11.57;;
15567;SDS011;7885;42.596;23.044;2024-02-23T02:55:27;12.37;;;10.93;;
15567;SDS011;7885;42.596;23.044;2024-02-23T02:57:54;12.90;;;11.30;;
15567;SDS011;7885;42.596;23.044;2024-02-23T03:00:21;16.07;;;11.80;;
15567;SDS011;7885;42.596;23.044;2024-02-23T03:02:48;13.50;;;12.10;;
15567;SDS011;7885;42.596;23.044;2024-02-23T03:05:16;12.97;;;11.57;;
15567;SDS011;7885;42.596;23.044;2024-02-23T03:07:42;11.40;;;9.97;;
15567;SDS011;7885;42.596;23.044;2024-02-23T03:10:09;12.53;;;11.07;;
15567;SDS011;7885;42.596;23.044;2024-02-23T03:12:36;13.53;;;11.07;;
15567;SDS011;7885;42.596;23.044;2024-02-23T03:15:03;13.97;;;10.73;;
15567;SDS011;7885;42.596;23.044;2024-02-23T03:17:32;11.63;;;10.43;;
15567;SDS011;7885;42.596;23.044;2024-02-23T03:19:59;11.90;;;10.60;;
15567;SDS011;7885;42.596;23.044;2024-02-23T03:22:27;12.07;;;10.77;;
15567;SDS011;7885;42.596;23.044;2024-02-23T03:24:54;14.43;;;12.93;;
15567;SDS011;7885;42.596;23.044;2024-02-23T03:27:21;22.40;;;20.27;;
15567;SDS011;7885;42.596;23.044;2024-02-23T03:29:54;13.87;;;12.47;;
15567;SDS011;7885;42.596;23.044;2024-02-23T03:32:21;13.33;;;12.00;;
15567;SDS011;7885;42.596;23.044;2024-02-23T03:34:48;14.00;;;12.00;;
15567;SDS011;7885;42.596;23.044;2024-02-23T03:37:15;12.63;;;10.77;;
15567;SDS011;7885;42.596;23.044;2024-02-23T03:39:43;12.23;;;10.97;;
15567;SDS011;7885;42.596;23.044;2024-02-23T03:42:10;12.50;;;11.20;;
15567;SDS011;7885;42.596;23.044;2024-02-23T03:44:37;13.33;;;11.33;;
15567;SDS011;7885;42.596;23.044;2024-02-23T03:47:04;12.30;;;11.10;;
15567;SDS011;7885;42.596;23.044;2024-02-23T03:49:31;12.83;;;11.53;;
15567;SDS011;7885;42.596;23.044;2024-02-23T03:51:59;11.07;;;9.87;;
15567;SDS011;7885;42.596;23.044;2024-02-23T03:54:26;12.27;;;10.97;;
15567;SDS011;7885;42.596;23.044;2024-02-23T03:56:55;10.43;;;9.37;;
15567;SDS011;7885;42.596;23.044;2024-02-23T03:59:21;13.00;;;11.60;;
15567;SDS011;7885;42.596;23.044;2024-02-23T04:01:48;12.50;;;11.20;;
15567;SDS011;7885;42.596;23.044;2024-02-23T04:04:15;11.63;;;10.43;;
15567;SDS011;7885;42.596;23.044;2024-02-23T04:06:42;11.20;;;9.90;;
15567;SDS011;7885;42.596;23.044;2024-02-23T04:09:09;15.80;;;13.30;;
15567;SDS011;7885;42.596;23.044;2024-02-23T04:11:36;13.17;;;11.53;;
15567;SDS011;7885;42.596;23.044;2024-02-23T04:14:04;12.00;;;10.60;;
15567;SDS011;7885;42.596;23.044;2024-02-23T04:16:31;10.93;;;9.83;;
15567;SDS011;7885;42.596;23.044;2024-02-23T04:18:58;14.37;;;12.97;;
15567;SDS011;7885;42.596;23.044;2024-02-23T04:21:25;10.23;;;9.23;;
15567;SDS011;7885;42.596;23.044;2024-02-23T04:23:51;11.53;;;10.20;;
15567;SDS011;7885;42.596;23.044;2024-02-23T04:26:18;11.67;;;10.43;;
15567;SDS011;7885;42.596;23.044;2024-02-23T04:28:45;10.87;;;9.53;;
15567;SDS011;7885;42.596;23.044;2024-02-23T04:31:13;12.20;;;11.00;;
15567;SDS011;7885;42.596;23.044;2024-02-23T04:33:40;12.43;;;11.13;;
15567;SDS011;7885;42.596;23.044;2024-02-23T04:36:07;12.43;;;11.13;;
15567;SDS011;7885;42.596;23.044;2024-02-23T04:38:34;11.00;;;9.90;;
15567;SDS011;7885;42.596;23.044;2024-02-23T04:41:02;10.47;;;9.47;;
15567;SDS011;7885;42.596;23.044;2024-02-23T04:43:30;10.40;;;9.30;;
15567;SDS011;7885;42.596;23.044;2024-02-23T04:45:57;8.67;;;7.13;;
15567;SDS011;7885;42.596;23.044;2024-02-23T04:48:25;10.70;;;9.60;;
15567;SDS011;7885;42.596;23.044;2024-02-23T04:50:52;11.23;;;9.13;;
15567;SDS011;7885;42.596;23.044;2024-02-23T04:53:19;13.60;;;9.80;;
15567;SDS011;7885;42.596;23.044;2024-02-23T04:55:45;11.63;;;9.97;;
15567;SDS011;7885;42.596;23.044;2024-02-23T04:58:12;8.80;;;7.77;;
15567;SDS011;7885;42.596;23.044;2024-02-23T05:00:39;11.03;;;9.53;;
15567;SDS011;7885;42.596;23.044;2024-02-23T05:03:06;11.43;;;10.10;;
15567;SDS011;7885;42.596;23.044;2024-02-23T05:05:34;11.20;;;10.00;;
15567;SDS011;7885;42.596;23.044;2024-02-23T05:08:01;9.93;;;8.93;;
15567;SDS011;7885;42.596;23.044;2024-02-23T05:10:28;10.63;;;9.53;;
15567;SDS011;7885;42.596;23.044;2024-02-23T05:12:55;10.33;;;9.23;;
15567;SDS011;7885;42.596;23.044;2024-02-23T05:15:22;12.27;;;9.23;;
15567;SDS011;7885;42.596;23.044;2024-02-23T05:17:49;9.27;;;8.03;;
15567;SDS011;7885;42.596;23.044;2024-02-23T05:20:15;10.80;;;9.70;;
15567;SDS011;7885;42.596;23.044;2024-02-23T05:22:44;12.13;;;9.93;;
15567;SDS011;7885;42.596;23.044;2024-02-23T05:25:10;11.27;;;9.57;;
15567;SDS011;7885;42.596;23.044;2024-02-23T05:27:37;8.97;;;7.40;;
15567;SDS011;7885;42.596;23.044;2024-02-23T05:30:05;11.10;;;9.47;;
15567;SDS011;7885;42.596;23.044;2024-02-23T05:32:32;11.43;;;8.07;;
15567;SDS011;7885;42.596;23.044;2024-02-23T05:34:59;10.03;;;9.03;;
15567;SDS011;7885;42.596;23.044;2024-02-23T05:37:26;10.20;;;8.73;;
15567;SDS011;7885;42.596;23.044;2024-02-23T05:39:55;9.23;;;8.27;;
15567;SDS011;7885;42.596;23.044;2024-02-23T05:42:22;10.40;;;9.30;;
15567;SDS011;7885;42.596;23.044;2024-02-23T05:44:49;10.73;;;8.53;;
15567;SDS011;7885;42.596;23.044;2024-02-23T05:47:16;10.13;;;8.93;;
15567;SDS011;7885;42.596;23.044;2024-02-23T05:49:43;9.60;;;8.60;;
15567;SDS011;7885;42.596;23.044;2024-02-23T05:52:09;9.87;;;8.87;;
15567;SDS011;7885;42.596;23.044;2024-02-23T05:54:36;11.97;;;9.63;;
15567;SDS011;7885;42.596;23.044;2024-02-23T05:57:05;11.90;;;9.33;;
15567;SDS011;7885;42.596;23.044;2024-02-23T05:59:31;11.00;;;9.77;;
15567;SDS011;7885;42.596;23.044;2024-02-23T06:01:58;9.63;;;8.60;;
15567;SDS011;7885;42.596;23.044;2024-02-23T06:04:25;9.53;;;8.43;;
15567;SDS011;7885;42.596;23.044;2024-02-23T06:06:52;10.37;;;8.00;;
15567;SDS011;7885;42.596;23.044;2024-02-23T06:09:19;10.83;;;7.33;;
15567;SDS011;7885;42.596;23.044;2024-02-23T06:11:45;10.23;;;8.33;;
15567;SDS011;7885;42.596;23.044;2024-02-23T06:14:14;8.47;;;7.17;;
15567;SDS011;7885;42.596;23.044;2024-02-23T06:16:41;10.47;;;9.10;;
15567;SDS011;7885;42.596;23.044;2024-02-23T06:19:08;10.80;;;9.70;;
15567;SDS011;7885;42.596;23.044;2024-02-23T06:21:35;9.10;;;7.77;;
15567;SDS011;7885;42.596;23.044;2024-02-23T06:24:02;7.43;;;6.63;;
15567;SDS011;7885;42.596;23.044;2024-02-23T06:26:30;7.37;;;6.63;;
15567;SDS011;7885;42.596;23.044;2024-02-23T06:28:56;7.97;;;6.00;;
15567;SDS011;7885;42.596;23.044;2024-02-23T06:31:25;7.77;;;6.80;;
15567;SDS011;7885;42.596;23.044;2024-02-23T06:33:52;9.20;;;7.97;;
15567;SDS011;7885;42.596;23.044;2024-02-23T06:36:19;8.83;;;7.93;;
15567;SDS011;7885;42.596;23.044;2024-02-23T06:38:45;8.80;;;6.90;;
15567;SDS011;7885;42.596;23.044;2024-02-23T06:41:12;7.73;;;5.73;;
15567;SDS011;7885;42.596;23.044;2024-02-23T06:43:39;7.33;;;6.63;;
15567;SDS011;7885;42.596;23.044;2024-02-23T06:46:06;8.57;;;7.77;;
15567;SDS011;7885;42.596;23.044;2024-02-23T06:48:35;7.50;;;6.23;;
15567;SDS011;7885;42.596;23.044;2024-02-23T06:51:03;6.70;;;5.97;;
15567;SDS011;7885;42.596;23.044;2024-02-23T06:53:30;7.83;;;7.13;;
15567;SDS011;7885;42.596;23.044;2024-02-23T06:55:57;7.40;;;6.70;;
15567;SDS011;7885;42.596;23.044;2024-02-23T06:58:25;7.60;;;6.87;;
15567;SDS011;7885;42.596;23.044;2024-02-23T07:00:52;8.17;;;7.27;;
15567;SDS011;7885;42.596;23.044;2024-02-23T07:03:19;7.70;;;7.00;;
15567;SDS011;7885;42.596;23.044;2024-02-23T07:05:47;7.53;;;6.83;;
15567;SDS011;7885;42.596;23.044;2024-02-23T07:08:15;6.50;;;5.90;;
15567;SDS011;7885;42.596;23.044;2024-02-23T07:10:42;6.70;;;6.03;;
15567;SDS011;7885;42.596;23.044;2024-02-23T07:13:08;7.43;;;6.83;;
15567;SDS011;7885;42.596;23.044;2024-02-23T07:15:35;5.87;;;5.27;;
15567;SDS011;7885;42.596;23.044;2024-02-23T07:18:02;6.10;;;5.53;;
15567;SDS011;7885;42.596;23.044;2024-02-23T07:20:29;6.43;;;5.57;;
15567;SDS011;7885;42.596;23.044;2024-02-23T07:22:58;5.67;;;5.17;;
15567;SDS011;7885;42.596;23.044;2024-02-23T07:25:25;6.30;;;5.70;;
15567;SDS011;7885;42.596;23.044;2024-02-23T07:27:51;5.60;;;5.10;;
15567;SDS011;7885;42.596;23.044;2024-02-23T07:30:18;5.97;;;5.47;;
15567;SDS011;7885;42.596;23.044;2024-02-23T07:32:45;6.10;;;5.60;;
15567;SDS011;7885;42.596;23.044;2024-02-23T07:35:12;6.53;;;5.93;;
15567;SDS011;7885;42.596;23.044;2024-02-23T07:37:39;6.27;;;5.77;;
15567;SDS011;7885;42.596;23.044;2024-02-23T07:40:08;6.17;;;5.63;;
15567;SDS011;7885;42.596;23.044;2024-02-23T07:42:35;6.30;;;5.80;;
15567;SDS011;7885;42.596;23.044;2024-02-23T07:45:02;5.00;;;4.60;;
15567;SDS011;7885;42.596;23.044;2024-02-23T07:47:30;4.77;;;4.27;;
15567;SDS011;7885;42.596;23.044;2024-02-23T07:49:57;5.60;;;5.13;;
15567;SDS011;7885;42.596;23.044;2024-02-23T07:52:24;4.80;;;4.40;;
15567;SDS011;7885;42.596;23.044;2024-02-23T07:54:51;5.37;;;4.80;;
15567;SDS011;7885;42.596;23.044;2024-02-23T07:57:19;5.40;;;5.00;;
15567;SDS011;7885;42.596;23.044;2024-02-23T07:59:46;5.77;;;5.27;;
15567;SDS011;7885;42.596;23.044;2024-02-23T08:02:13;5.00;;;4.60;;
15567;SDS011;7885;42.596;23.044;2024-02-23T08:04:41;5.10;;;4.70;;
15567;SDS011;7885;42.596;23.044;2024-02-23T08:07:08;5.27;;;4.77;;
15567;SDS011;7885;42.596;23.044;2024-02-23T08:09:35;6.00;;;5.40;;
15567;SDS011;7885;42.596;23.044;2024-02-23T08:12:02;4.47;;;3.50;;
15567;SDS011;7885;42.596;23.044;2024-02-23T08:14:30;4.23;;;3.90;;
15567;SDS011;7885;42.596;23.044;2024-02-23T08:16:58;4.30;;;3.90;;
15567;SDS011;7885;42.596;23.044;2024-02-23T08:19:24;4.73;;;4.33;;
15567;SDS011;7885;42.596;23.044;2024-02-23T08:21:51;3.90;;;3.60;;
15567;SDS011;7885;42.596;23.044;2024-02-23T08:24:18;4.00;;;3.70;;
15567;SDS011;7885;42.596;23.044;2024-02-23T08:26:45;3.90;;;3.60;;
15567;SDS011;7885;42.596;23.044;2024-02-23T08:29:12;3.90;;;3.60;;
15567;SDS011;7885;42.596;23.044;2024-02-23T08:31:40;3.73;;;3.43;;
15567;SDS011;7885;42.596;23.044;2024-02-23T08:34:06;3.70;;;3.40;;
15567;SDS011;7885;42.596;23.044;2024-02-23T08:36:33;3.37;;;3.10;;
15567;SDS011;7885;42.596;23.044;2024-02-23T08:39:00;3.60;;;3.30;;
15567;SDS011;7885;42.596;23.044;2024-02-23T08:41:28;3.73;;;3.43;;
15567;SDS011;7885;42.596;23.044;2024-02-23T08:43:54;3.60;;;3.30;;
15567;SDS011;7885;42.596;23.044;2024-02-23T08:46:21;3.55;;;3.30;;
15567;SDS011;7885;42.596;23.044;2024-02-23T08:48:49;2.83;;;2.50;;
15567;SDS011;7885;42.596;23.044;2024-02-23T08:51:16;3.37;;;3.07;;
15567;SDS011;7885;42.596;23.044;2024-02-23T08:53:43;3.17;;;2.97;;
15567;SDS011;7885;42.596;23.044;2024-02-23T08:56:10;4.27;;;3.87;;
15567;SDS011;7885;42.596;23.044;2024-02-23T08:58:39;3.20;;;3.00;;
15567;SDS011;7885;42.596;23.044;2024-02-23T09:01:06;2.80;;;2.40;;
15567;SDS011;7885;42.596;23.044;2024-02-23T09:03:34;3.50;;;3.20;;
15567;SDS011;7885;42.596;23.044;2024-02-23T09:06:06;3.30;;;3.10;;
15567;SDS011;7885;42.596;23.044;2024-02-23T09:08:35;3.33;;;3.03;;
15567;SDS011;7885;42.596;23.044;2024-02-23T09:11:02;3.27;;;3.03;;
15567;SDS011;7885;42.596;23.044;2024-02-23T09:13:29;3.27;;;2.97;;
15567;SDS011;7885;42.596;23.044;2024-02-23T09:15:57;2.40;;;2.20;;
15567;SDS011;7885;42.596;23.044;2024-02-23T09:18:23;3.40;;;3.10;;
15567;SDS011;7885;42.596;23.044;2024-02-23T09:20:50;2.67;;;2.47;;
15567;SDS011;7885;42.596;23.044;2024-02-23T09:23:18;3.17;;;2.87;;
15567;SDS011;7885;42.596;23.044;2024-02-23T09:25:45;3.50;;;2.80;;
15567;SDS011;7885;42.596;23.044;2024-02-23T09:28:12;3.40;;;3.07;;
15567;SDS011;7885;42.596;23.044;2024-02-23T09:30:39;3.87;;;2.87;;
15567;SDS011;7885;42.596;23.044;2024-02-23T09:33:06;3.27;;;2.97;;
15567;SDS011;7885;42.596;23.044;2024-02-23T09:35:33;7.07;;;2.50;;
15567;SDS011;7885;42.596;23.044;2024-02-23T09:38:00;2.87;;;2.67;;
15567;SDS011;7885;42.596;23.044;2024-02-23T09:40:29;3.70;;;3.03;;
15567;SDS011;7885;42.596;23.044;2024-02-23T09:42:56;2.63;;;2.43;;
15567;SDS011;7885;42.596;23.044;2024-02-23T09:45:24;3.20;;;2.90;;
15567;SDS011;7885;42.596;23.044;2024-02-23T09:47:52;3.13;;;2.90;;
15567;SDS011;7885;42.596;23.044;2024-02-23T09:50:20;2.37;;;2.03;;
15567;SDS011;7885;42.596;23.044;2024-02-23T09:52:49;2.80;;;2.60;;
15567;SDS011;7885;42.596;23.044;2024-02-23T09:55:16;3.40;;;2.80;;
15567;SDS011;7885;42.596;23.044;2024-02-23T09:57:45;2.97;;;2.70;;
15567;SDS011;7885;42.596;23.044;2024-02-23T10:00:14;2.90;;;2.57;;
15567;SDS011;7885;42.596;23.044;2024-02-23T10:02:43;2.50;;;2.30;;
15567;SDS011;7885;42.596;23.044;2024-02-23T10:05:10;2.70;;;2.50;;
15567;SDS011;7885;42.596;23.044;2024-02-23T10:07:38;2.57;;;2.37;;
15567;SDS011;7885;42.596;23.044;2024-02-23T10:10:06;4.70;;;2.83;;
15567;SDS011;7885;42.596;23.044;2024-02-23T10:12:33;2.80;;;2.60;;
15567;SDS011;7885;42.596;23.044;2024-02-23T10:15:01;2.97;;;2.77;;
15567;SDS011;7885;42.596;23.044;2024-02-23T10:17:29;2.50;;;2.30;;
15567;SDS011;7885;42.596;23.044;2024-02-23T10:19:55;3.03;;;2.73;;
15567;SDS011;7885;42.596;23.044;2024-02-23T10:22:23;2.90;;;2.60;;
15567;SDS011;7885;42.596;23.044;2024-02-23T10:28:13;1.63;;;1.53;;
15567;SDS011;7885;42.596;23.044;2024-02-23T10:30:41;2.27;;;2.07;;
15567;SDS011;7885;42.596;23.044;2024-02-23T10:33:07;2.90;;;2.60;;
15567;SDS011;7885;42.596;23.044;2024-02-23T10:35:36;2.20;;;2.00;;
15567;SDS011;7885;42.596;23.044;2024-02-23T10:38:05;2.90;;;2.40;;
15567;SDS011;7885;42.596;23.044;2024-02-23T10:40:35;3.40;;;2.53;;
15567;SDS011;7885;42.596;23.044;2024-02-23T10:43:05;2.20;;;2.00;;
15567;SDS011;7885;42.596;23.044;2024-02-23T10:45:38;2.40;;;2.20;;
15567;SDS011;7885;42.596;23.044;2024-02-23T10:48:07;3.13;;;2.83;;
15567;SDS011;7885;42.596;23.044;2024-02-23T10:50:35;2.50;;;2.30;;
15567;SDS011;7885;42.596;23.044;2024-02-23T10:53:03;2.67;;;2.43;;
15567;SDS011;7885;42.596;23.044;2024-02-23T10:55:33;2.50;;;2.30;;
15567;SDS011;7885;42.596;23.044;2024-02-23T10:58:03;2.73;;;2.53;;
15567;SDS011;7885;42.596;23.044;2024-02-23T11:00:33;3.07;;;2.00;;
15567;SDS011;7885;42.596;23.044;2024-02-23T11:02:59;2.37;;;2.17;;
15567;SDS011;7885;42.596;23.044;2024-02-23T11:05:30;2.53;;;2.33;;
15567;SDS011;7885;42.596;23.044;2024-02-23T11:07:57;1.70;;;1.60;;
15567;SDS011;7885;42.596;23.044;2024-02-23T11:10:24;2.60;;;2.40;;
15567;SDS011;7885;42.596;23.044;2024-02-23T11:12:57;2.50;;;1.83;;
15567;SDS011;7885;42.596;23.044;2024-02-23T11:15:28;2.00;;;1.83;;
15567;SDS011;7885;42.596;23.044;2024-02-23T11:17:58;2.77;;;2.40;;
15567;SDS011;7885;42.596;23.044;2024-02-23T11:20:35;1.97;;;1.87;;
15567;SDS011;7885;42.596;23.044;2024-02-23T11:23:12;1.83;;;1.73;;
15567;SDS011;7885;42.596;23.044;2024-02-23T11:25:39;2.43;;;2.23;;
15567;SDS011;7885;42.596;23.044;2024-02-23T11:28:06;2.07;;;1.83;;
15567;SDS011;7885;42.596;23.044;2024-02-23T11:30:33;2.03;;;1.83;;
15567;SDS011;7885;42.596;23.044;2024-02-23T11:33:01;2.30;;;2.10;;
15567;SDS011;7885;42.596;23.044;2024-02-23T11:35:27;2.20;;;2.03;;
15567;SDS011;7885;42.596;23.044;2024-02-23T11:37:56;2.33;;;1.90;;
15567;SDS011;7885;42.596;23.044;2024-02-23T11:40:25;2.20;;;1.87;;
15567;SDS011;7885;42.596;23.044;2024-02-23T11:42:52;2.13;;;1.80;;
15567;SDS011;7885;42.596;23.044;2024-02-23T11:45:21;1.70;;;1.60;;
15567;SDS011;7885;42.596;23.044;2024-02-23T11:47:48;2.17;;;1.97;;
15567;SDS011;7885;42.596;23.044;2024-02-23T11:50:15;5.00;;;2.30;;
15567;SDS011;7885;42.596;23.044;2024-02-23T11:52:44;2.07;;;1.87;;
15567;SDS011;7885;42.596;23.044;2024-02-23T11:55:13;2.20;;;2.00;;
15567;SDS011;7885;42.596;23.044;2024-02-23T11:57:47;2.43;;;2.23;;
15567;SDS011;7885;42.596;23.044;2024-02-23T12:00:14;2.37;;;2.17;;
15567;SDS011;7885;42.596;23.044;2024-02-23T12:02:42;2.30;;;2.10;;
15567;SDS011;7885;42.596;23.044;2024-02-23T12:05:09;2.20;;;2.00;;
15567;SDS011;7885;42.596;23.044;2024-02-23T12:07:36;2.60;;;2.10;;
15567;SDS011;7885;42.596;23.044;2024-02-23T12:10:03;2.00;;;1.90;;
15567;SDS011;7885;42.596;23.044;2024-02-23T12:12:32;1.70;;;1.60;;
15567;SDS011;7885;42.596;23.044;2024-02-23T12:14:59;1.60;;;1.50;;
15567;SDS011;7885;42.596;23.044;2024-02-23T12:17:26;2.80;;;1.97;;
15567;SDS011;7885;42.596;23.044;2024-02-23T12:19:57;2.00;;;1.90;;
15567;SDS011;7885;42.596;23.044;2024-02-23T12:22:25;3.73;;;2.00;;
15567;SDS011;7885;42.596;23.044;2024-02-23T12:28:18;1.80;;;1.70;;
15567;SDS011;7885;42.596;23.044;2024-02-23T12:30:45;2.30;;;1.73;;
15567;SDS011;7885;42.596;23.044;2024-02-23T12:33:13;1.43;;;1.33;;
15567;SDS011;7885;42.596;23.044;2024-02-23T12:35:41;1.60;;;1.50;;
15567;SDS011;7885;42.596;23.044;2024-02-23T12:38:08;2.37;;;1.67;;
15567;SDS011;7885;42.596;23.044;2024-02-23T12:40:35;1.20;;;1.10;;
15567;SDS011;7885;42.596;23.044;2024-02-23T12:43:02;1.50;;;1.40;;
15567;SDS011;7885;42.596;23.044;2024-02-23T12:45:30;1.60;;;1.50;;
15567;SDS011;7885;42.596;23.044;2024-02-23T12:47:57;1.53;;;1.43;;
15567;SDS011;7885;42.596;23.044;2024-02-23T12:50:24;1.50;;;1.40;;
15567;SDS011;7885;42.596;23.044;2024-02-23T12:52:51;1.73;;;1.63;;
15567;SDS011;7885;42.596;23.044;2024-02-23T12:55:18;1.80;;;1.70;;
15567;SDS011;7885;42.596;23.044;2024-02-23T12:57:44;2.33;;;1.70;;
15567;SDS011;7885;42.596;23.044;2024-02-23T13:00:12;1.50;;;1.40;;
15567;SDS011;7885;42.596;23.044;2024-02-23T13:02:41;1.90;;;1.67;;
15567;SDS011;7885;42.596;23.044;2024-02-23T13:05:08;1.80;;;1.70;;
15567;SDS011;7885;42.596;23.044;2024-02-23T13:07:35;1.97;;;1.80;;
15567;SDS011;7885;42.596;23.044;2024-02-23T13:10:04;2.10;;;1.90;;
15567;SDS011;7885;42.596;23.044;2024-02-23T13:12:31;2.00;;;1.40;;
15567;SDS011;7885;42.596;23.044;2024-02-23T13:14:58;2.77;;;1.77;;
15567;SDS011;7885;42.596;23.044;2024-02-23T13:17:24;2.20;;;1.90;;
15567;SDS011;7885;42.596;23.044;2024-02-23T13:19:53;1.90;;;1.70;;
15567;SDS011;7885;42.596;23.044;2024-02-23T13:22:20;1.60;;;1.50;;
15567;SDS011;7885;42.596;23.044;2024-02-23T13:24:46;1.70;;;1.60;;
15567;SDS011;7885;42.596;23.044;2024-02-23T13:27:13;2.00;;;1.90;;
15567;SDS011;7885;42.596;23.044;2024-02-23T13:29:40;2.03;;;1.83;;
15567;SDS011;7885;42.596;23.044;2024-02-23T13:32:07;1.80;;;1.70;;
15567;SDS011;7885;42.596;23.044;2024-02-23T13:34:34;2.80;;;1.60;;
15567;SDS011;7885;42.596;23.044;2024-02-23T13:37:02;1.27;;;1.17;;
15567;SDS011;7885;42.596;23.044;2024-02-23T13:39:29;1.87;;;1.67;;
15567;SDS011;7885;42.596;23.044;2024-02-23T13:41:57;1.30;;;1.20;;
15567;SDS011;7885;42.596;23.044;2024-02-23T13:44:24;1.73;;;1.63;;
15567;SDS011;7885;42.596;23.044;2024-02-23T13:46:51;1.60;;;1.50;;
15567;SDS011;7885;42.596;23.044;2024-02-23T13:49:18;1.77;;;1.67;;
15567;SDS011;7885;42.596;23.044;2024-02-23T13:51:45;2.10;;;1.90;;
15567;SDS011;7885;42.596;23.044;2024-02-23T13:54:13;1.70;;;1.60;;
15567;SDS011;7885;42.596;23.044;2024-02-23T13:56:40;1.60;;;1.50;;
15567;SDS011;7885;42.596;23.044;2024-02-23T13:59:07;1.87;;;1.77;;
15567;SDS011;7885;42.596;23.044;2024-02-23T14:01:33;2.93;;;1.97;;
15567;SDS011;7885;42.596;23.044;2024-02-23T14:04:00;2.40;;;2.03;;
15567;SDS011;7885;42.596;23.044;2024-02-23T14:06:33;2.00;;;1.70;;
15567;SDS011;7885;42.596;23.044;2024-02-23T14:09:00;2.07;;;1.87;;
15567;SDS011;7885;42.596;23.044;2024-02-23T14:11:29;2.00;;;1.90;;
15567;SDS011;7885;42.596;23.044;2024-02-23T14:13:56;2.10;;;1.90;;
15567;SDS011;7885;42.596;23.044;2024-02-23T14:16:24;2.13;;;1.90;;
15567;SDS011;7885;42.596;23.044;2024-02-23T14:18:51;2.20;;;2.00;;
15567;SDS011;7885;42.596;23.044;2024-02-23T14:21:17;2.10;;;1.90;;
15567;SDS011;7885;42.596;23.044;2024-02-23T14:27:09;2.10;;;1.90;;
15567;SDS011;7885;42.596;23.044;2024-02-23T14:29:36;2.10;;;1.90;;
15567;SDS011;7885;42.596;23.044;2024-02-23T14:32:03;1.70;;;1.60;;
15567;SDS011;7885;42.596;23.044;2024-02-23T14:34:30;1.80;;;1.70;;
15567;SDS011;7885;42.596;23.044;2024-02-23T14:36:58;2.20;;;2.00;;
15567;SDS011;7885;42.596;23.044;2024-02-23T14:39:25;2.20;;;2.00;;
15567;SDS011;7885;42.596;23.044;2024-02-23T14:41:52;2.37;;;2.10;;
15567;SDS011;7885;42.596;23.044;2024-02-23T14:44:20;2.20;;;2.00;;
15567;SDS011;7885;42.596;23.044;2024-02-23T14:46:47;3.50;;;3.10;;
15567;SDS011;7885;42.596;23.044;2024-02-23T14:49:14;2.07;;;1.90;;
15567;SDS011;7885;42.596;23.044;2024-02-23T14:51:41;2.63;;;2.43;;